createdAt,value
2023-08-30T00:01:14.337Z,97596.53
2023-08-30T00:03:41.582Z,97603.13
2023-08-30T00:06:08.609Z,97600.72
2023-08-30T00:08:36.134Z,97601.03
2023-08-30T00:11:05.888Z,97593.31
2023-08-30T00:13:34.843Z,97594.09
2023-08-30T00:16:03.783Z,97596.84
2023-08-30T00:18:31.538Z,97595.22
2023-08-30T00:20:59.422Z,97605.38
2023-08-30T00:23:26.627Z,97606.50
2023-08-30T00:25:53.772Z,97605.22
2023-08-30T00:28:21.491Z,97607.97
2023-08-30T00:30:53.931Z,97600.56
2023-08-30T00:33:20.730Z,97603.59
2023-08-30T00:35:48.120Z,97607.16
2023-08-30T00:38:15.032Z,97614.25
2023-08-30T00:40:42.357Z,97613.75
2023-08-30T00:43:09.592Z,97613.75
2023-08-30T00:45:41.255Z,97613.44
2023-08-30T00:48:08.434Z,97615.87
2023-08-30T00:50:36.807Z,97618.59
2023-08-30T00:53:07.086Z,97615.87
2023-08-30T00:55:38.336Z,97612.00
2023-08-30T00:58:06.693Z,97614.75
2023-08-30T01:00:34.546Z,97617.16
2023-08-30T01:03:02.842Z,97623.78
2023-08-30T01:05:30.428Z,97627.62
2023-08-30T01:07:57.195Z,97636.78
2023-08-30T01:10:34.891Z,97638.41
2023-08-30T01:13:10.130Z,97646.28
2023-08-30T01:15:40.119Z,97651.16
2023-08-30T01:18:09.330Z,97653.56
2023-08-30T01:20:39.896Z,97658.06
2023-08-30T01:23:12.220Z,97663.88
2023-08-30T01:26:00.749Z,97673.25
2023-08-30T01:28:30.156Z,97670.53
2023-08-30T01:30:59.109Z,97671.69
2023-08-30T01:33:28.828Z,97680.06
2023-08-30T01:36:01.270Z,97677.94
2023-08-30T01:38:30.342Z,97685.66
2023-08-30T01:41:01.237Z,97684.19
2023-08-30T01:43:30.257Z,97688.88
2023-08-30T01:45:58.719Z,97692.56
2023-08-30T01:48:27.650Z,97685.16
2023-08-30T01:51:00.356Z,97681.66
2023-08-30T01:53:29.133Z,97681.19
2023-08-30T01:55:56.587Z,97681.03
2023-08-30T01:58:23.324Z,97678.31
2023-08-30T02:00:50.534Z,97676.69
2023-08-30T02:03:17.809Z,97680.56
2023-08-30T02:06:10.475Z,97671.22
2023-08-30T02:08:42.794Z,97667.06
2023-08-30T02:11:18.487Z,97652.22
2023-08-30T02:13:47.598Z,97646.56
2023-08-30T02:16:16.039Z,97630.59
2023-08-30T02:18:42.942Z,97629.19
2023-08-30T02:21:10.453Z,97631.22
2023-08-30T02:23:37.296Z,97628.78
2023-08-30T02:26:06.923Z,97630.41
2023-08-30T02:28:34.348Z,97628.16
2023-08-30T02:31:01.216Z,97632.69
2023-08-30T02:33:28.033Z,97634.59
2023-08-30T02:35:55.528Z,97637.84
2023-08-30T02:38:22.683Z,97638.66
2023-08-30T02:40:49.794Z,97639.44
2023-08-30T02:43:17.242Z,97629.63
2023-08-30T02:45:44.054Z,97634.59
2023-08-30T02:48:11.286Z,97633.47
2023-08-30T02:50:38.745Z,97626.38
2023-08-30T02:53:05.794Z,97626.06
2023-08-30T02:55:32.654Z,97624.94
2023-08-30T02:58:00.088Z,97624.94
2023-08-30T03:00:27.194Z,97619.78
2023-08-30T03:02:54.382Z,97623.03
2023-08-30T03:05:21.981Z,97618.66
2023-08-30T03:07:48.894Z,97610.44
2023-08-30T03:10:16.076Z,97615.13
2023-08-30T03:12:43.223Z,97604.16
2023-08-30T03:15:10.233Z,97596.25
2023-08-30T03:17:38.148Z,97597.88
2023-08-30T03:20:05.519Z,97599.81
2023-08-30T03:22:33.315Z,97604.47
2023-08-30T03:25:00.445Z,97602.84
2023-08-30T03:27:27.524Z,97613.50
2023-08-30T03:29:56.470Z,97622.53
2023-08-30T03:32:23.637Z,97633.00
2023-08-30T03:34:50.769Z,97633.31
2023-08-30T03:37:18.019Z,97628.16
2023-08-30T03:39:45.409Z,97625.09
2023-08-30T03:42:12.184Z,97623.97
2023-08-30T03:44:40.433Z,97614.63
2023-08-30T03:47:07.242Z,97623.16
2023-08-30T03:49:34.466Z,97618.81
2023-08-30T03:52:02.132Z,97618.00
2023-08-30T03:54:29.271Z,97615.56
2023-08-30T03:56:56.055Z,97623.78
2023-08-30T03:59:25.719Z,97624.09
2023-08-30T04:01:54.235Z,97625.50
2023-08-30T04:04:21.420Z,97627.75
2023-08-30T04:06:48.878Z,97622.28
2023-08-30T04:09:15.627Z,97635.50
2023-08-30T04:11:43.810Z,97639.03
2023-08-30T04:14:11.193Z,97646.13
2023-08-30T04:16:38.444Z,97634.38
2023-08-30T04:19:05.315Z,97623.09
2023-08-30T04:21:32.891Z,97635.16
2023-08-30T04:23:59.787Z,97633.88
2023-08-30T04:26:26.913Z,97641.59
2023-08-30T04:28:54.121Z,97642.69
2023-08-30T04:31:21.280Z,97639.94
2023-08-30T04:33:48.113Z,97649.28
2023-08-30T04:36:15.515Z,97648.16
2023-08-30T04:38:52.212Z,97652.22
2023-08-30T04:41:24.172Z,97649.81
2023-08-30T04:43:51.038Z,97656.91
2023-08-30T04:46:18.192Z,97646.44
2023-08-30T04:48:45.351Z,97650.31
2023-08-30T04:51:12.726Z,97660.44
2023-08-30T04:53:39.707Z,97660.75
2023-08-30T04:56:13.053Z,97659.66
2023-08-30T04:58:40.649Z,97661.25
2023-08-30T05:01:08.262Z,97656.91
2023-08-30T05:03:35.761Z,97656.91
2023-08-30T05:06:03.337Z,97657.72
2023-08-30T05:08:30.505Z,97662.38
2023-08-30T05:10:57.294Z,97661.25
2023-08-30T05:13:24.729Z,97663.19
2023-08-30T05:15:51.548Z,97668.34
2023-08-30T05:18:20.873Z,97664.81
2023-08-30T05:20:47.981Z,97668.16
2023-08-30T05:23:15.240Z,97668.16
2023-08-30T05:25:42.090Z,97670.59
2023-08-30T05:28:09.512Z,97671.41
2023-08-30T05:30:36.788Z,97676.06
2023-08-30T05:33:04.178Z,97671.72
2023-08-30T05:35:31.350Z,97667.53
2023-08-30T05:37:58.114Z,97668.34
2023-08-30T05:40:26.024Z,97671.09
2023-08-30T05:42:54.692Z,97669.66
2023-08-30T05:45:22.246Z,97675.94
2023-08-30T05:47:49.373Z,97666.59
2023-08-30T05:50:16.706Z,97676.75
2023-08-30T05:52:46.076Z,97674.81
2023-08-30T05:55:13.583Z,97669.34
2023-08-30T05:57:40.791Z,97677.25
2023-08-30T06:00:10.185Z,97676.97
2023-08-30T06:02:37.654Z,97679.69
2023-08-30T06:05:04.723Z,97675.84
2023-08-30T06:07:31.825Z,97677.13
2023-08-30T06:09:59.743Z,97683.91
2023-08-30T06:12:27.249Z,97684.41
2023-08-30T06:14:54.620Z,97685.22
2023-08-30T06:17:21.623Z,97684.09
2023-08-30T06:19:49.422Z,97679.44
2023-08-30T06:22:16.901Z,97685.41
2023-08-30T06:24:43.810Z,97689.47
2023-08-30T06:27:11.336Z,97689.97
2023-08-30T06:29:38.415Z,97697.06
2023-08-30T06:32:06.013Z,97702.22
2023-08-30T06:34:33.416Z,97706.59
2023-08-30T06:37:00.223Z,97705.94
2023-08-30T06:39:27.317Z,97715.78
2023-08-30T06:41:54.473Z,97708.06
2023-08-30T06:44:23.268Z,97715.16
2023-08-30T06:46:50.090Z,97720.00
2023-08-30T06:49:18.126Z,97721.63
2023-08-30T06:51:45.242Z,97727.28
2023-08-30T06:54:11.998Z,97721.19
2023-08-30T06:56:39.185Z,97722.50
2023-08-30T06:59:06.319Z,97723.00
2023-08-30T07:01:36.166Z,97720.44
2023-08-30T07:04:03.968Z,97716.72
2023-08-30T07:06:32.486Z,97716.91
2023-08-30T07:08:59.433Z,97725.31
2023-08-30T07:11:33.945Z,97720.03
2023-08-30T07:14:01.626Z,97719.06
2023-08-30T07:16:28.769Z,97717.62
2023-08-30T07:18:55.885Z,97719.41
2023-08-30T07:21:23.074Z,97711.03
2023-08-30T07:23:50.634Z,97726.53
2023-08-30T07:26:17.919Z,97721.06
2023-08-30T07:28:45.762Z,97726.25
2023-08-30T07:31:15.795Z,97733.53
2023-08-30T07:33:42.886Z,97738.06
2023-08-30T07:36:10.041Z,97735.78
2023-08-30T07:38:37.114Z,97740.34
2023-08-30T07:41:04.435Z,97735.03
2023-08-30T07:43:31.843Z,97738.78
2023-08-30T07:46:00.434Z,97746.06
2023-08-30T07:48:27.713Z,97750.59
2023-08-30T07:50:54.830Z,97741.72
2023-08-30T07:53:21.687Z,97746.25
2023-08-30T07:55:51.956Z,97752.69
2023-08-30T07:58:19.181Z,97749.03
2023-08-30T08:00:46.448Z,97760.16
2023-08-30T08:03:13.326Z,97755.66
2023-08-30T08:05:42.510Z,97760.16
2023-08-30T08:08:12.260Z,97762.28
2023-08-30T08:10:39.092Z,97755.00
2023-08-30T08:13:06.496Z,97754.88
2023-08-30T08:15:34.913Z,97755.03
2023-08-30T08:18:03.243Z,97754.06
2023-08-30T08:20:30.925Z,97753.09
2023-08-30T08:22:58.155Z,97756.81
2023-08-30T08:25:25.380Z,97766.84
2023-08-30T08:27:52.748Z,97764.28
2023-08-30T08:30:21.516Z,97773.16
2023-08-30T08:32:51.527Z,97763.13
2023-08-30T08:35:18.748Z,97770.44
2023-08-30T08:37:45.871Z,97773.31
2023-08-30T08:40:13.099Z,97776.75
2023-08-30T08:42:41.346Z,97777.72
2023-08-30T08:45:11.653Z,97773.19
2023-08-30T08:47:39.679Z,97774.94
2023-08-30T08:50:07.105Z,97780.59
2023-08-30T08:52:40.879Z,97782.06
2023-08-30T08:55:19.095Z,97773.97
2023-08-30T08:57:49.687Z,97793.84
2023-08-30T09:00:18.080Z,97786.56
2023-08-30T09:02:45.541Z,97790.75
2023-08-30T09:05:13.299Z,97788.66
2023-08-30T09:07:40.991Z,97787.34
2023-08-30T09:10:08.488Z,97783.59
2023-08-30T09:12:36.595Z,97786.50
2023-08-30T09:15:05.739Z,97790.22
2023-08-30T09:17:39.737Z,97787.31
2023-08-30T09:20:11.979Z,97789.88
2023-08-30T09:22:42.741Z,97795.69
2023-08-30T09:25:11.482Z,97795.53
2023-08-30T09:27:43.600Z,97796.66
2023-08-30T09:30:12.338Z,97795.31
2023-08-30T09:32:43.880Z,97796.41
2023-08-30T09:35:11.679Z,97793.16
2023-08-30T09:37:38.845Z,97790.69
2023-08-30T09:40:07.202Z,97797.28
2023-08-30T09:42:34.453Z,97797.56
2023-08-30T09:45:02.536Z,97804.19
2023-08-30T09:47:30.754Z,97798.94
2023-08-30T09:49:59.879Z,97794.50
2023-08-30T09:52:30.707Z,97796.75
2023-08-30T09:54:59.648Z,97795.78
2023-08-30T09:57:27.148Z,97797.53
2023-08-30T09:59:55.130Z,97803.63
2023-08-30T10:02:22.622Z,97794.69
2023-08-30T10:04:50.264Z,97796.81
2023-08-30T10:07:19.222Z,97799.69
2023-08-30T10:10:07.320Z,97796.59
2023-08-30T10:12:34.489Z,97795.91
2023-08-30T10:15:01.855Z,97786.16
2023-08-30T10:17:32.711Z,97786.62
2023-08-30T10:20:04.981Z,97781.59
2023-08-30T10:22:33.924Z,97781.72
2023-08-30T10:25:11.652Z,97793.72
2023-08-30T10:27:43.616Z,97791.88
2023-08-30T10:30:12.664Z,97785.69
2023-08-30T10:32:41.932Z,97782.72
2023-08-30T10:35:13.487Z,97783.31
2023-08-30T10:37:41.235Z,97772.41
2023-08-30T10:40:09.020Z,97775.31
2023-08-30T10:42:36.376Z,97777.84
2023-08-30T10:45:13.759Z,97775.69
2023-08-30T10:47:42.324Z,97779.06
2023-08-30T10:50:14.253Z,97774.94
2023-08-30T10:52:41.940Z,97777.50
2023-08-30T10:55:14.255Z,97778.41
2023-08-30T10:57:46.259Z,97774.28
2023-08-30T11:00:20.725Z,97773.25
2023-08-30T11:02:51.310Z,97772.59
2023-08-30T11:05:24.111Z,97784.22
2023-08-30T11:07:52.596Z,97774.09
2023-08-30T11:10:21.123Z,97778.91
2023-08-30T11:12:50.788Z,97780.66
2023-08-30T11:15:19.128Z,97781.91
2023-08-30T11:17:46.661Z,97780.75
2023-08-30T11:20:17.998Z,97772.12
2023-08-30T11:22:46.921Z,97778.16
2023-08-30T11:25:15.231Z,97777.44
2023-08-30T11:27:43.358Z,97779.53
2023-08-30T11:30:11.881Z,97780.78
2023-08-30T11:32:40.650Z,97777.31
2023-08-30T11:35:08.597Z,97780.56
2023-08-30T11:37:35.580Z,97784.13
2023-08-30T11:40:05.350Z,97779.06
2023-08-30T11:42:32.688Z,97781.47
2023-08-30T11:45:01.290Z,97772.38
2023-08-30T11:47:28.935Z,97778.34
2023-08-30T11:49:58.697Z,97774.78
2023-08-30T11:52:26.975Z,97775.25
2023-08-30T11:54:55.613Z,97782.37
2023-08-30T11:57:22.586Z,97777.66
2023-08-30T11:59:51.337Z,97784.81
2023-08-30T12:02:19.457Z,97771.47
2023-08-30T12:04:48.300Z,97778.62
2023-08-30T12:07:26.590Z,97772.75
2023-08-30T12:09:54.901Z,97770.47
2023-08-30T12:12:26.122Z,97772.06
2023-08-30T12:14:59.479Z,97770.13
2023-08-30T12:17:27.269Z,97767.34
2023-08-30T12:20:00.992Z,97759.87
2023-08-30T12:22:39.801Z,97760.66
2023-08-30T12:25:19.754Z,97766.19
2023-08-30T12:27:48.221Z,97768.50
2023-08-30T12:30:18.902Z,97766.09
2023-08-30T12:32:47.110Z,97763.66
2023-08-30T12:35:14.570Z,97776.19
2023-08-30T12:37:41.679Z,97768.25
2023-08-30T12:40:09.161Z,97763.84
2023-08-30T12:42:36.636Z,97770.06
2023-08-30T12:45:04.757Z,97764.09
2023-08-30T12:47:31.782Z,97756.94
2023-08-30T12:49:58.893Z,97755.69
2023-08-30T12:52:26.039Z,97756.84
2023-08-30T12:54:55.549Z,97754.44
2023-08-30T12:57:22.431Z,97763.88
2023-08-30T12:59:49.538Z,97755.13
2023-08-30T13:02:16.770Z,97759.03
2023-08-30T13:04:44.044Z,97762.59
2023-08-30T13:07:11.238Z,97761.78
2023-08-30T13:09:38.792Z,97755.81
2023-08-30T13:12:06.025Z,97761.34
2023-08-30T13:14:33.651Z,97757.78
2023-08-30T13:17:00.596Z,97764.44
2023-08-30T13:19:27.870Z,97754.91
2023-08-30T13:21:56.135Z,97762.03
2023-08-30T13:24:23.525Z,97760.41
2023-08-30T13:26:50.684Z,97757.66
2023-08-30T13:29:17.603Z,97765.13
2023-08-30T13:31:45.521Z,97762.38
2023-08-30T13:34:12.851Z,97761.56
2023-08-30T13:36:40.536Z,97765.13
2023-08-30T13:39:08.029Z,97773.06
2023-08-30T13:41:37.278Z,97773.06
2023-08-30T13:44:07.875Z,97773.06
2023-08-30T13:46:35.186Z,97770.31
2023-08-30T13:49:02.166Z,97769.16
2023-08-30T13:51:29.893Z,97770.78
2023-08-30T13:53:57.433Z,97768.00
2023-08-30T13:56:25.285Z,97768.00
2023-08-30T13:58:53.086Z,97772.38
2023-08-30T14:01:20.901Z,97773.19
2023-08-30T14:03:47.933Z,97772.03
2023-08-30T14:06:15.230Z,97778.38
2023-08-30T14:08:43.901Z,97778.38
2023-08-30T14:11:11.371Z,97791.03
2023-08-30T14:13:38.942Z,97787.47
2023-08-30T14:16:06.607Z,97788.25
2023-08-30T14:18:33.788Z,97780.31
2023-08-30T14:21:01.574Z,97779.19
2023-08-30T14:23:30.356Z,97783.09
2023-08-30T14:26:01.839Z,97786.66
2023-08-30T14:28:29.034Z,97785.03
2023-08-30T14:30:56.678Z,97786.19
2023-08-30T14:33:24.066Z,97787.00
2023-08-30T14:35:51.984Z,97788.16
2023-08-30T14:38:18.953Z,97787.00
2023-08-30T14:40:55.601Z,97796.09
2023-08-30T14:43:23.281Z,97792.97
2023-08-30T14:45:59.640Z,97793.78
2023-08-30T14:48:33.176Z,97797.00
2023-08-30T14:51:02.403Z,97791.13
2023-08-30T14:53:30.208Z,97803.00
2023-08-30T14:55:58.221Z,97802.31
2023-08-30T14:58:25.887Z,97798.37
2023-08-30T15:00:53.227Z,97800.00
2023-08-30T15:03:21.281Z,97802.41
2023-08-30T15:05:58.341Z,97801.25
2023-08-30T15:08:26.185Z,97794.94
2023-08-30T15:10:53.482Z,97796.53
2023-08-30T15:13:22.238Z,97802.41
2023-08-30T15:15:49.921Z,97798.84
2023-08-30T15:18:18.558Z,97794.47
2023-08-30T15:20:46.754Z,97792.50
2023-08-30T15:23:21.106Z,97790.09
2023-08-30T15:25:49.619Z,97789.28
2023-08-30T15:30:46.571Z,97794.47
2023-08-30T15:33:16.464Z,97797.25
2023-08-30T15:40:43.588Z,97797.59
2023-08-30T15:43:11.745Z,97801.16
2023-08-30T15:45:39.519Z,97805.87
2023-08-30T15:48:07.702Z,97800.34
2023-08-30T15:50:35.604Z,97792.88
2023-08-30T15:53:02.779Z,97801.59
2023-08-30T15:55:32.071Z,97800.81
2023-08-30T15:57:59.269Z,97805.97
2023-08-30T16:00:27.071Z,97807.59
2023-08-30T16:02:54.776Z,97812.78
2023-08-30T16:05:24.093Z,97813.56
2023-08-30T16:07:51.707Z,97804.16
2023-08-30T16:10:21.707Z,97820.41
2023-08-30T16:12:49.179Z,97813.72
2023-08-30T16:15:17.654Z,97811.78
2023-08-30T16:17:48.508Z,97812.59
2023-08-30T16:20:20.298Z,97812.59
2023-08-30T16:22:56.030Z,97814.56
2023-08-30T16:25:27.049Z,97818.44
2023-08-30T16:27:55.822Z,97820.41
2023-08-30T16:30:29.594Z,97816.47
2023-08-30T16:32:58.702Z,97819.59
2023-08-30T16:35:26.676Z,97828.22
2023-08-30T16:38:00.650Z,97825.78
2023-08-30T16:40:32.894Z,97828.53
2023-08-30T16:43:01.971Z,97832.81
2023-08-30T16:48:07.014Z,97825.56
2023-08-30T16:50:36.711Z,97841.66
2023-08-30T16:53:09.188Z,97831.31
2023-08-30T16:55:39.972Z,97831.19
2023-08-30T16:58:09.711Z,97840.97
2023-08-30T17:00:40.627Z,97831.28
2023-08-30T17:03:11.383Z,97832.78
2023-08-30T17:05:43.946Z,97824.72
2023-08-30T17:08:15.037Z,97832.06
2023-08-30T17:10:44.123Z,97834.25
2023-08-30T17:13:15.051Z,97842.41
2023-08-30T17:15:46.299Z,97834.31
2023-08-30T17:18:15.351Z,97842.13
2023-08-30T17:20:44.936Z,97844.31
2023-08-30T17:23:14.482Z,97843.37
2023-08-30T17:25:44.246Z,97844.06
2023-08-30T17:28:15.750Z,97838.75
2023-08-30T17:30:44.382Z,97837.31
2023-08-30T17:33:14.118Z,97843.50
2023-08-30T17:35:43.160Z,97854.75
2023-08-30T17:38:14.898Z,97855.78
2023-08-30T17:40:45.585Z,97852.91
2023-08-30T17:43:14.678Z,97849.97
2023-08-30T17:45:43.556Z,97849.03
2023-08-30T17:48:14.355Z,97851.22
2023-08-30T17:50:44.656Z,97859.00
2023-08-30T17:53:14.824Z,97858.06
2023-08-30T17:55:44.399Z,97852.28
2023-08-30T17:58:14.836Z,97852.13
2023-08-30T18:00:45.998Z,97860.75
2023-08-30T18:03:14.939Z,97865.31
2023-08-30T18:05:44.364Z,97871.03
2023-08-30T18:08:14.615Z,97869.63
2023-08-30T18:10:43.837Z,97873.81
2023-08-30T18:13:16.870Z,97885.19
2023-08-30T18:15:46.261Z,97887.47
2023-08-30T18:18:20.987Z,97899.16
2023-08-30T18:20:51.949Z,97894.31
2023-08-30T18:23:22.980Z,97900.66
2023-08-30T18:25:57.137Z,97903.25
2023-08-30T18:28:27.450Z,97906.34
2023-08-30T18:31:01.165Z,97900.38
2023-08-30T18:33:30.716Z,97911.22
2023-08-30T18:36:00.169Z,97912.34
2023-08-30T18:38:33.373Z,97922.88
2023-08-30T18:43:46.889Z,97936.03
2023-08-30T18:46:35.672Z,97931.19
2023-08-30T18:49:08.960Z,97942.53
2023-08-30T18:51:39.878Z,97935.28
2023-08-30T18:54:12.641Z,97942.25
2023-08-30T18:56:45.397Z,97955.22
2023-08-30T18:59:16.687Z,97953.13
2023-08-30T19:01:45.747Z,97952.66
2023-08-30T19:04:15.999Z,97949.38
2023-08-30T19:06:46.120Z,97952.81
2023-08-30T19:09:18.692Z,97955.41
2023-08-30T19:11:49.309Z,97966.41
2023-08-30T19:14:20.765Z,97967.09
2023-08-30T19:16:49.983Z,97977.12
2023-08-30T19:19:21.625Z,97973.91
2023-08-30T19:21:54.012Z,97978.59
2023-08-30T19:24:25.054Z,97980.87
2023-08-30T19:26:55.604Z,97983.16
2023-08-30T19:29:25.231Z,97976.66
2023-08-30T19:31:55.194Z,97976.97
2023-08-30T19:34:26.954Z,97978.94
2023-08-30T19:36:57.926Z,97976.50
2023-08-30T19:39:30.308Z,97979.59
2023-08-30T19:42:01.159Z,97964.19
2023-08-30T19:44:30.637Z,97966.47
2023-08-30T19:47:02.189Z,97969.88
2023-08-30T19:49:31.511Z,97967.47
2023-08-30T19:52:01.449Z,97967.31
2023-08-30T19:54:31.210Z,97965.69
2023-08-30T19:57:01.801Z,97963.09
2023-08-30T19:59:30.606Z,97964.53
2023-08-30T20:02:01.042Z,97961.31
2023-08-30T20:04:32.336Z,97964.72
2023-08-30T20:07:02.809Z,97966.66
2023-08-30T20:09:36.479Z,97971.16
2023-08-30T20:12:05.901Z,97974.25
2023-08-30T20:14:34.749Z,97970.19
2023-08-30T20:17:03.952Z,97969.25
2023-08-30T20:19:33.275Z,97963.25
2023-08-30T20:22:03.848Z,97964.69
2023-08-30T20:24:36.488Z,97965.81
2023-08-30T20:27:05.901Z,97964.53
2023-08-30T20:29:34.911Z,97959.34
2023-08-30T20:32:03.558Z,97954.50
2023-08-30T20:34:33.870Z,97955.16
2023-08-30T20:37:04.448Z,97957.41
2023-08-30T20:39:31.936Z,97960.00
2023-08-30T20:41:59.501Z,97959.03
2023-08-30T20:44:27.587Z,97966.16
2023-08-30T20:46:55.573Z,97965.97
2023-08-30T20:49:22.802Z,97970.97
2023-08-30T20:51:50.752Z,97968.88
2023-08-30T20:54:18.430Z,97968.06
2023-08-30T20:56:47.950Z,97968.72
2023-08-30T20:59:15.436Z,97969.69
2023-08-30T21:01:43.102Z,97964.19
2023-08-30T21:04:10.613Z,97964.81
2023-08-30T21:06:37.398Z,97964.00
2023-08-30T21:09:05.053Z,97972.91
2023-08-30T21:11:31.971Z,97971.28
2023-08-30T21:14:00.163Z,97970.78
2023-08-30T21:16:28.121Z,97968.34
2023-08-30T21:18:55.292Z,97966.72
2023-08-30T21:21:22.254Z,97967.38
2023-08-30T21:23:49.758Z,97972.69
2023-08-30T21:26:16.909Z,97978.69
2023-08-30T21:28:44.779Z,97975.44
2023-08-30T21:31:12.005Z,97983.22
2023-08-30T21:33:39.126Z,97987.09
2023-08-30T21:36:06.334Z,97993.22
2023-08-30T21:38:33.461Z,97992.41
2023-08-30T21:41:00.321Z,97998.56
2023-08-30T21:43:27.526Z,97991.13
2023-08-30T21:45:54.990Z,97999.69
2023-08-30T21:48:22.155Z,97996.75
2023-08-30T21:50:50.661Z,97990.75
2023-08-30T21:53:17.894Z,97993.81
2023-08-30T21:55:45.039Z,98004.31
2023-08-30T21:58:12.547Z,97999.62
2023-08-30T22:00:39.993Z,97995.56
2023-08-30T22:03:07.624Z,98002.19
2023-08-30T22:05:34.882Z,98006.38
2023-08-30T22:08:02.174Z,98004.75
2023-08-30T22:10:29.656Z,98010.25
2023-08-30T22:12:57.295Z,98012.50
2023-08-30T22:15:24.783Z,98009.75
2023-08-30T22:17:52.789Z,98012.03
2023-08-30T22:20:21.347Z,98011.53
2023-08-30T22:22:49.703Z,98010.72
2023-08-30T22:25:17.285Z,98011.84
2023-08-30T22:27:45.530Z,98005.88
2023-08-30T22:30:16.195Z,98002.31
2023-08-30T22:32:44.750Z,97998.53
2023-08-30T22:35:12.577Z,98004.34
2023-08-30T22:37:39.427Z,98001.63
2023-08-30T22:40:07.982Z,98003.56
2023-08-30T22:42:35.187Z,97999.19
2023-08-30T22:45:06.830Z,98008.56
2023-08-30T22:47:35.340Z,98006.13
2023-08-30T22:50:02.284Z,98010.63
2023-08-30T22:52:30.442Z,98008.69
2023-08-30T22:54:58.761Z,98006.28
2023-08-30T22:57:25.559Z,98003.03
2023-08-30T22:59:52.646Z,98002.84
2023-08-30T23:02:19.805Z,98002.84
2023-08-30T23:04:47.062Z,98002.03
2023-08-30T23:07:14.160Z,98000.44
2023-08-30T23:09:41.336Z,98004.28
2023-08-30T23:12:08.744Z,97988.44
2023-08-30T23:14:35.952Z,97996.16
2023-08-30T23:17:04.245Z,97996.97
2023-08-30T23:19:31.121Z,97995.69
2023-08-30T23:21:58.675Z,97997.63
2023-08-30T23:24:25.449Z,98002.28
2023-08-30T23:26:52.730Z,97999.22
2023-08-30T23:29:25.780Z,97996.81
2023-08-30T23:31:56.048Z,97995.50
2023-08-30T23:34:26.413Z,98005.66
2023-08-30T23:36:53.559Z,98007.59
2023-08-30T23:39:20.352Z,98010.66
2023-08-30T23:41:48.324Z,98004.37
2023-08-30T23:44:15.231Z,98000.81
2023-08-30T23:46:42.721Z,98001.12
2023-08-30T23:49:09.897Z,98004.19
2023-08-30T23:51:37.037Z,98000.62
2023-08-30T23:54:04.184Z,98002.56
2023-08-30T23:56:31.326Z,98001.75
2023-08-30T23:58:58.401Z,98010.31
